Pekin, North Dakota
Current Conditions -  °F | °C
As of 9:15 AM on Monday 24 Nov 2014 (Local Time) from KDVL Reporting Station
Clear Clear  
Wind Chill: -11°   Ceiling: Unl
Heat Index:   Visibility: 10mi
Dew Point: -2°   Wind: 22mph
Humidity: 62%   Direction: 350°N
Pressure: 29.79"   Gusts: 29mph
Location:  47.79°N, 98.33°W
Report Text: KDVL 241515Z AUTO 35019G25KT 10SM CLR M13/M19 A2979 RMK AO1
Loading
Personal Weather Stations






























Interactive Weather Map New forecast layout! Learn more

10-Day Weather Forecast

Advertisements
Track Severe Weather on mobile